Barbados Meteorological Services
Auto gathered TAF list
Powered by Apparatus software
For Flight WS2513
Contact Number 1-(246)-535-0021/2/3/4/5/6
WEB: http://www.barbadosweather.org

**********************************************

2018/09/20 13:16
TAF
AMD TXKF 201300Z 2013/2112 24020KT 9999 VCSH FEW025 BKN150 PROB30
TEMPO 2014/2016 4800 SHRA BKN025CB PROB40
TEMPO 2020/2023 4800 SHRA BKN020 PROB30
TEMPO 2020/2023 3200 TSRA BKN015CB
BECMG 2023/2101 29010KT
BECMG 2109/2112 35012KT


**********************************************
2018/09/20 12:41
TAF TLPL 201100Z 2012/2112 10018KT 9999 SCT025


**********************************************
2018/09/20 12:52
TAF TJSJ 201150Z 2012/2112 11005KT P6SM VCSH FEW022 SCT040 SCT080
FM201400 07015KT P6SM SCT030
FM202300 11005KT P6SM FEW022 SCT035


**********************************************
2018/09/20 12:55
TAF TFFR 201000Z 2012/2112 09008KT 9999 SCT025 PROB30
TEMPO 2103/2110 4000 SHRA FEW020TCU


**********************************************
2018/09/20 12:57
TAF TBPB 201100Z 2012/2112 08019KT 9999 SCT018


**********************************************
2018/09/20 12:55
TAF TAPA 201100Z 2012/2112 07014KT 9999 SCT021


**********************************************
2018/09/20 15:58
TAF
AMD KPHL 201456Z 2015/2118 13009KT P6SM BKN025 BKN050
FM201700 14009KT P6SM SCT025 BKN040
FM211100 VRB04KT P6SM BKN025


**********************************************
2018/09/20 12:59
TAF COR KORF 201159Z 2012/2112 08004KT P6SM SCT015 BKN030
TEMPO 2012/2014 BKN015
FM201600 07010KT P6SM SCT035
FM202300 09010KT P6SM SCT040
FM210200 09009KT P6SM SCT100


**********************************************
2018/09/20 15:39
TAF
AMD KJFK 201531Z 2015/2118 05007KT P6SM FEW020 OVC035
FM201700 11007KT P6SM BKN040
FM201900 14006KT P6SM BKN035
FM210400 13006KT P6SM BKN020
FM211100 16006KT P6SM BKN020
FM211400 17009G14KT P6SM BKN020
FM211500 17011G17KT P6SM BKN040


**********************************************
2018/09/20 15:06
TAF
AMD KIAD 201505Z 2015/2118 11005KT P6SM BKN010 BKN040
FM201600 14006KT P6SM SCT015 BKN040
FM210200 15006KT P6SM BKN025
FM211000 17007KT P6SM BKN025
FM211600 18009KT P6SM BKN035


**********************************************
2018/09/20 15:34
TAF
AMD KEWR 201531Z 2015/2118 09007KT P6SM FEW025 BKN035
FM201800 10004KT P6SM BKN035
FM210200 14004KT P6SM BKN035
FM210500 14005KT P6SM BKN020
FM211400 18007KT P6SM BKN020
FM211500 19008KT P6SM BKN040


**********************************************
2018/09/20 13:22
TAF
AMD KCHS 201311Z 2013/2112 10006KT P6SM SCT035
FM210400 VRB03KT P6SM FEW020


**********************************************
2018/09/20 15:05
TAF
AMD KBOS 201500Z 2015/2118 03015KT P6SM BKN020 BKN028
FM201800 05010KT P6SM SCT025 BKN050
FM202100 07009KT P6SM SCT090
FM210000 08006KT P6SM BKN070
FM210500 11005KT P6SM BKN050
FM210900 15004KT P6SM BKN030
FM211300 18006KT P6SM BKN035
FM211500 17009KT P6SM BKN070


**********************************************
2018/09/20 16:10
TAF
AMD CYYZ 201606Z 2016/2118 12010KT P6SM SCT025 BKN100
FM202000 10010KT P6SM -SHRA FEW025 BKN050
FM210000 09008KT P6SM -SHRA BKN020
FM210800 21010KT P6SM -SHRA BKN025 PROB30 2108/2111 2SM +TSRA BR BKN030CB
FM211400 22020G30KT P6SM FEW025
RMK NXT FCST BY 201800Z


**********************************************
2018/09/20 15:45
TAF CYUL 201438Z 2015/2112 02007KT 6SM BR OVC010
TEMPO 2015/2016 P6SM NSW FEW010 BKN120
FM201600 04008KT P6SM FEW010 BKN120
TEMPO 2016/2018 BKN010
FM201800 10005KT P6SM FEW030 FEW100
FM210400 09007KT P6SM BKN150
FM210800 12010KT P6SM -RA OVC070
FM211100 15015G25KT 5SM -RA BR FEW020 OVC040
RMK NXT FCST BY 201800Z


**********************************************
2018/09/20 15:45
TAF CYOW 201438Z 2015/2112 08005KT P6SM BKN100
FM201800 09006KT P6SM FEW030 FEW100
FM210000 06007KT P6SM BKN150
FM210600 08010KT P6SM -RA OVC070
FM210900 08010KT 2SM -RA BR BKN004 OVC030
RMK NXT FCST BY 201800Z


**********************************************
2018/09/20 14:24
TAF TAF
AMD CYMX 201415Z 2014/2112 VRB03KT 5SM BR OVC006
TEMPO 2014/2016 P6SM NSW FEW006 SCT040 OVC150
FM201600 04005KT P6SM FEW010 BKN150
TEMPO 2016/2018 BKN010
FM201800 12005KT P6SM FEW030 FEW100
FM210400 VRB03KT P6SM BKN150
FM210800 07005KT P6SM -RA OVC070
FM211100 14008KT 4SM -RA BR BKN005 OVC030
RMK NXT FCST BY 201800Z


**********************************************